21:33
Airports
History
Links
Donate
Help keep this website running!
PayPal
Bitcoin
This page is community maintained. The information is intended for PC simulator navigation or reference.
Always use approved charts for navigation.
2W9
Chandler
Chandler (2W9)
Ridge, Maryland, United States (20680)
4
Lat/Lng:38° 7' 5.46" N / 76° 23' 28.82" W
38.118182 / -76.391338
Elevation:17'ft / 5mMSL
ID / ICAO:2W9
Runways:1
Longest:10-28
Grass 579m / 1,901ft
Nearby Weather20:52 GMT 2018-02-20
Nearby weather at KNHK, Patuxent River Nas/trapnell Fi located 11.7 nautical miles from 2W9
Altimeter: 30.32
Visibility: 10.0 statute miles
Wind: 10 knots (from 180°)
Temp: 22°c / 72°f
Humidity: 68.8%

METAR: KNHK 202052Z 18010KT 10SM FEW030 FEW280 22/16 A3032 RMK SLP268 T02220161 56016

(Powered by phpweather)
Nearby VORs <50NM
Nearby NDBs
Runway 10 / 28
Dimensions:579.4 x 18.3m 1901' x 60'ft
Surface:Grass
Runway 10 [A]Runway 28 [B]
Heading:090°TH 270°TH
Lat:
Lng:
38° 7' 5.45"N
76° 23' 40.74"W
38° 7' 5.45"N
76° 23' 16.89"W
User Notes and Comments
38° 7' 5.46" N / 76° 23' 28.82" W
Distance To
Airport ID:
Nearby Airports
(R) Wingfield 2.6 NM
MD01 NE 47°
(R) Webster Nolf 2.8 NM
KNUI NW 313°
(R) Cherry Field 4.7 NM
2MD6 WNW 292°
4 West St Marys 5.7 NM
3MD6 NNW 328°
(R) Patuxent River Nas/trapnell Fi 11.7 NM
KNHK ( WX ) N 355°
(R) Shivok 12.0 NM
8VA2 SW 231°
(R) Sanford Field 12.1 NM
VA23 W 270°
VFR Chart
Flight Planning at SkyVector.com